Time;durP1;ratioP1;P1;durP2;ratioP2;P2;SDS_P1;SDS_P2;PMS_P1;PMS_P2;Temp;Humidity;BMP_temperature;BMP_pressure;BME280_temperature;BME280_humidity;BME280_pressure;Samples;Min_cycle;Max_cycle;Signal;HPM_P1;HPM_P2
2021/05/28 00:01:54;;;;;;;4.20;1.90;;;11.40;99.90;;;;;;4155294;28;20685;-68
2021/05/28 00:03:55;;;;;;;4.38;1.98;;;11.40;99.90;;;;;;4153326;28;20033;-67
2021/05/28 00:05:56;;;;;;;4.55;2.17;;;11.40;99.90;;;;;;4156556;28;20040;-68
2021/05/28 00:07:56;;;;;;;8.00;2.60;;;11.30;99.90;;;;;;4151495;28;20056;-68
2021/05/28 00:09:58;;;;;;;6.15;2.33;;;11.30;99.90;;;;;;4155620;28;20135;-68
2021/05/28 00:11:59;;;;;;;4.80;1.95;;;11.30;99.90;;;;;;4155064;28;20052;-68
2021/05/28 00:14:00;;;;;;;5.00;2.08;;;11.30;99.90;;;;;;4155960;28;20034;-68
2021/05/28 00:16:01;;;;;;;3.95;2.13;;;11.30;99.90;;;;;;4158229;28;20494;-68
2021/05/28 00:18:02;;;;;;;4.22;2.08;;;11.20;99.90;;;;;;4155330;28;20404;-68
2021/05/28 00:20:05;;;;;;;4.60;2.00;;;11.20;99.90;;;;;;4140417;28;20117;-68
2021/05/28 00:22:06;;;;;;;4.35;2.03;;;11.20;99.90;;;;;;4155069;28;20038;-68
2021/05/28 00:24:07;;;;;;;3.08;1.80;;;11.20;99.90;;;;;;4154006;28;20088;-68
2021/05/28 00:26:08;;;;;;;5.60;2.63;;;11.20;99.90;;;;;;4158326;28;20038;-68
2021/05/28 00:28:08;;;;;;;3.17;1.65;;;11.20;99.90;;;;;;4158511;28;20057;-68
2021/05/28 00:30:11;;;;;;;4.32;2.35;;;11.10;99.90;;;;;;4158382;28;20060;-68
2021/05/28 00:32:11;;;;;;;6.30;2.25;;;11.10;99.90;;;;;;4157080;28;20026;-68
2021/05/28 00:34:12;;;;;;;7.03;2.20;;;11.10;99.90;;;;;;4158048;28;20029;-68
2021/05/28 00:36:13;;;;;;;2.95;1.83;;;11.10;99.90;;;;;;4158408;28;20030;-68
2021/05/28 00:38:13;;;;;;;4.80;2.15;;;11.10;99.90;;;;;;4157249;28;20022;-68
2021/05/28 00:40:15;;;;;;;3.47;1.48;;;11.10;99.90;;;;;;4158049;28;20118;-68
2021/05/28 00:42:16;;;;;;;3.75;1.73;;;11.10;99.90;;;;;;4154325;28;20524;-68
2021/05/28 00:44:26;;;;;;;3.90;1.73;;;11.10;99.90;;;;;;4157659;28;20093;-68
2021/05/28 00:46:27;;;;;;;5.38;1.80;;;11.10;99.90;;;;;;4151418;28;20053;-68
2021/05/28 00:48:27;;;;;;;4.70;1.80;;;11.10;99.90;;;;;;4156090;28;20123;-68
2021/05/28 00:50:29;;;;;;;4.38;1.88;;;11.10;99.90;;;;;;4160938;28;20097;-68
2021/05/28 00:52:30;;;;;;;2.60;1.45;;;11.10;99.90;;;;;;4161160;28;20049;-68
2021/05/28 00:54:31;;;;;;;2.92;2.00;;;11.10;99.90;;;;;;4159489;28;20037;-68
2021/05/28 00:56:32;;;;;;;2.45;1.77;;;11.10;99.90;;;;;;4157958;28;20120;-68
2021/05/28 00:58:32;;;;;;;3.78;1.73;;;11.10;99.90;;;;;;4159498;28;20085;-68
2021/05/28 01:00:33;;;;;;;3.75;1.70;;;11.10;99.90;;;;;;4159886;28;20038;-68
2021/05/28 01:02:34;;;;;;;4.03;1.65;;;11.10;99.90;;;;;;4161232;28;20045;-68
2021/05/28 01:04:34;;;;;;;3.78;1.95;;;11.10;99.90;;;;;;4161089;28;20124;-68
2021/05/28 01:06:36;;;;;;;6.30;2.53;;;11.10;99.90;;;;;;4161658;28;20113;-68
2021/05/28 01:08:36;;;;;;;3.40;1.90;;;11.10;99.90;;;;;;4160927;28;20041;-68
2021/05/28 01:10:37;;;;;;;3.83;2.00;;;11.00;99.90;;;;;;4159277;28;20068;-68
2021/05/28 01:12:37;;;;;;;4.30;2.08;;;11.10;99.90;;;;;;4158769;28;20068;-68
2021/05/28 01:14:38;;;;;;;3.40;1.92;;;11.00;99.90;;;;;;4160342;28;20033;-68
2021/05/28 01:16:39;;;;;;;3.97;1.80;;;11.00;99.90;;;;;;4159433;28;20057;-68
2021/05/28 01:18:40;;;;;;;3.75;1.98;;;11.00;99.90;;;;;;4161078;28;20513;-68
2021/05/28 01:20:41;;;;;;;4.13;1.95;;;11.00;99.90;;;;;;4161055;28;20767;-68
2021/05/28 01:22:41;;;;;;;4.28;2.00;;;11.00;99.90;;;;;;4160175;28;20128;-68
2021/05/28 01:24:42;;;;;;;4.15;1.77;;;11.00;99.90;;;;;;4160815;28;20033;-68
2021/05/28 01:26:42;;;;;;;3.33;1.92;;;11.00;99.90;;;;;;4159973;28;20104;-68
2021/05/28 01:28:43;;;;;;;5.60;2.05;;;10.90;99.90;;;;;;4159409;28;20026;-68
2021/05/28 01:30:44;;;;;;;5.05;1.98;;;10.90;99.90;;;;;;4160937;28;20040;-68
2021/05/28 01:32:46;;;;;;;5.38;1.90;;;10.90;99.90;;;;;;4159591;28;20460;-68
2021/05/28 01:34:47;;;;;;;3.45;1.83;;;10.90;99.90;;;;;;4157217;28;20060;-68
2021/05/28 01:36:47;;;;;;;5.00;2.40;;;10.90;99.90;;;;;;4158956;28;20528;-68
2021/05/28 01:38:48;;;;;;;8.48;2.13;;;10.80;99.90;;;;;;4159424;28;20042;-68
2021/05/28 01:40:49;;;;;;;5.30;2.33;;;10.80;99.90;;;;;;4151609;28;20729;-68
2021/05/28 01:42:50;;;;;;;3.55;1.70;;;10.80;99.90;;;;;;4159343;28;20124;-68
2021/05/28 01:44:53;;;;;;;3.22;1.73;;;10.80;99.90;;;;;;4157693;28;20029;-68
2021/05/28 01:46:54;;;;;;;3.33;1.67;;;10.80;99.90;;;;;;4159770;28;20037;-68
2021/05/28 01:48:54;;;;;;;2.90;1.95;;;10.70;99.90;;;;;;4156903;28;20045;-68
2021/05/28 01:50:55;;;;;;;3.35;1.63;;;10.70;99.90;;;;;;4154888;28;20037;-68
2021/05/28 01:52:55;;;;;;;5.60;2.10;;;10.70;99.90;;;;;;4159288;28;20029;-68
2021/05/28 01:54:56;;;;;;;7.38;2.25;;;10.60;99.90;;;;;;4157187;28;20040;-68
2021/05/28 01:56:56;;;;;;;4.75;1.77;;;10.60;99.90;;;;;;4152478;28;20048;-68
2021/05/28 01:58:58;;;;;;;1.95;1.30;;;10.60;99.90;;;;;;4159319;28;20441;-68
2021/05/28 02:00:59;;;;;;;3.47;1.70;;;10.60;99.90;;;;;;4160085;28;20696;-68
2021/05/28 02:03:00;;;;;;;4.10;1.65;;;10.60;99.90;;;;;;4158388;28;20037;-68
2021/05/28 02:05:00;;;;;;;2.33;1.70;;;10.50;99.90;;;;;;4153048;28;20072;-68
2021/05/28 02:07:02;;;;;;;3.42;1.80;;;10.50;99.90;;;;;;4158993;28;20144;-68
2021/05/28 02:09:03;;;;;;;2.83;2.10;;;10.50;99.90;;;;;;4159277;28;20037;-68
2021/05/28 02:11:05;;;;;;;2.15;1.40;;;10.50;99.90;;;;;;4154797;28;20041;-68
2021/05/28 02:13:05;;;;;;;1.50;1.20;;;10.50;99.90;;;;;;4158478;28;20070;-68
2021/05/28 02:15:06;;;;;;;4.30;1.30;;;10.50;99.90;;;;;;4158107;28;20034;-68
2021/05/28 02:17:09;;;;;;;2.00;1.23;;;10.50;99.90;;;;;;4160637;28;20034;-70
2021/05/28 02:19:10;;;;;;;;;;;10.50;99.90;;;;;;4160465;28;20046;-70
2021/05/28 02:21:11;;;;;;;2.85;1.30;;;10.50;99.90;;;;;;4158020;28;20528;-70
2021/05/28 02:23:11;;;;;;;2.58;1.58;;;10.50;99.90;;;;;;4159996;28;20030;-70
2021/05/28 02:25:15;;;;;;;3.33;1.58;;;10.40;99.90;;;;;;4158722;28;20057;-70
2021/05/28 02:27:16;;;;;;;2.10;1.52;;;10.40;99.90;;;;;;4157638;28;20120;-70
2021/05/28 02:29:17;;;;;;;1.65;1.52;;;10.40;99.90;;;;;;4159712;28;20358;-68
2021/05/28 02:31:17;;;;;;;3.75;1.77;;;10.40;99.90;;;;;;4159714;28;20462;-68
2021/05/28 02:33:18;;;;;;;2.22;1.55;;;10.40;99.90;;;;;;4161095;28;20055;-68
2021/05/28 02:35:19;;;;;;;5.18;2.00;;;10.40;99.90;;;;;;4159096;28;20045;-68
2021/05/28 02:37:19;;;;;;;3.00;1.58;;;10.40;99.90;;;;;;4160743;28;20056;-68
2021/05/28 02:39:21;;;;;;;2.83;1.75;;;10.40;99.90;;;;;;4159522;28;20040;-68
2021/05/28 02:41:22;;;;;;;1.92;1.35;;;10.40;99.90;;;;;;4157059;28;20105;-68
2021/05/28 02:43:23;;;;;;;2.80;1.38;;;10.40;99.90;;;;;;4159080;28;20562;-68
2021/05/28 02:45:24;;;;;;;2.40;1.45;;;10.30;99.90;;;;;;4159595;28;20381;-68
2021/05/28 02:47:25;;;;;;;2.47;1.65;;;10.30;99.90;;;;;;4159756;28;20034;-68
2021/05/28 02:49:26;;;;;;;2.33;1.58;;;10.30;99.90;;;;;;4157531;28;20088;-68
2021/05/28 02:51:26;;;;;;;4.28;1.80;;;10.30;99.90;;;;;;4157541;28;20041;-68
2021/05/28 02:53:33;;;;;;;3.50;1.98;;;10.20;99.90;;;;;;4158085;28;20061;-68
2021/05/28 02:55:34;;;;;;;2.75;1.40;;;10.20;99.90;;;;;;4158144;28;20215;-68
2021/05/28 02:57:36;;;;;;;2.83;1.77;;;10.20;99.90;;;;;;4156776;28;20678;-68
2021/05/28 02:59:38;;;;;;;1.83;1.58;;;10.10;99.90;;;;;;4158007;28;20500;-68
2021/05/28 03:01:38;;;;;;;3.50;1.40;;;10.10;99.90;;;;;;4156803;28;20045;-68
2021/05/28 03:03:39;;;;;;;2.58;1.40;;;10.10;99.90;;;;;;4157425;28;20512;-68
2021/05/28 03:05:40;;;;;;;4.07;1.42;;;10.10;99.90;;;;;;4158204;28;20038;-68
2021/05/28 03:07:40;;;;;;;3.17;1.38;;;10.10;99.90;;;;;;4157711;28;20060;-68
2021/05/28 03:09:41;;;;;;;2.67;1.63;;;10.00;99.90;;;;;;4134862;28;20054;-68
2021/05/28 03:11:42;;;;;;;2.72;1.92;;;10.00;99.90;;;;;;4155932;28;20689;-68
2021/05/28 03:13:43;;;;;;;3.58;1.80;;;10.00;99.90;;;;;;4157352;28;20029;-68
2021/05/28 03:15:43;;;;;;;5.07;2.20;;;10.00;99.90;;;;;;4157395;28;20037;-68
2021/05/28 03:17:46;;;;;;;4.60;2.05;;;9.90;99.90;;;;;;4159036;28;20168;-68
2021/05/28 03:19:47;;;;;;;4.30;2.13;;;9.90;99.90;;;;;;4156782;28;20037;-68
2021/05/28 03:24:08;;;;;;;3.78;2.17;;;9.90;99.90;;;;;;4156852;28;20268;-68
2021/05/28 03:26:09;;;;;;;4.32;2.10;;;9.80;99.90;;;;;;4158041;28;20673;-68
2021/05/28 03:28:10;;;;;;;3.45;2.25;;;9.80;99.90;;;;;;4158640;28;20626;-68
2021/05/28 03:30:12;;;;;;;2.60;1.77;;;9.80;99.90;;;;;;4139964;28;20034;-68
2021/05/28 03:32:12;;;;;;;2.90;1.92;;;9.80;99.90;;;;;;4156635;28;20090;-68
2021/05/28 03:34:13;;;;;;;2.30;1.65;;;9.80;99.90;;;;;;4158116;28;20068;-68
2021/05/28 03:36:14;;;;;;;1.77;1.42;;;9.80;99.90;;;;;;4154947;28;20048;-68
2021/05/28 03:38:15;;;;;;;3.80;1.50;;;9.80;99.90;;;;;;4156592;28;20116;-68
2021/05/28 03:40:16;;;;;;;2.67;1.50;;;9.80;99.90;;;;;;4157826;28;20389;-68
2021/05/28 03:42:18;;;;;;;2.83;1.65;;;9.80;99.90;;;;;;4154170;28;20037;-68
2021/05/28 03:44:18;;;;;;;2.22;1.45;;;9.70;99.90;;;;;;4155772;28;20616;-68
2021/05/28 03:46:19;;;;;;;2.75;1.42;;;9.70;99.90;;;;;;4156732;28;20061;-68
2021/05/28 03:48:20;;;;;;;3.58;1.30;;;9.70;99.90;;;;;;4156402;28;20034;-68
2021/05/28 03:50:20;;;;;;;2.10;1.42;;;9.70;99.90;;;;;;4156500;28;20040;-68
2021/05/28 03:52:21;;;;;;;2.83;1.30;;;9.70;99.90;;;;;;4154105;28;20117;-68
2021/05/28 03:54:22;;;;;;;3.45;1.60;;;9.70;99.90;;;;;;4155923;28;20028;-69
2021/05/28 03:56:22;;;;;;;1.88;1.30;;;9.70;99.90;;;;;;4157949;28;20132;-68
2021/05/28 03:58:23;;;;;;;2.90;2.00;;;9.70;99.90;;;;;;4157176;28;20030;-68
2021/05/28 04:00:25;;;;;;;6.68;3.00;;;9.70;99.90;;;;;;4155748;28;20037;-68
2021/05/28 04:02:25;;;;;;;8.27;4.23;;;9.70;99.90;;;;;;4156786;28;20068;-68
2021/05/28 04:04:26;;;;;;;14.27;5.30;;;9.60;99.90;;;;;;4157760;28;20067;-68
2021/05/28 04:06:26;;;;;;;13.68;6.28;;;9.60;99.90;;;;;;4150076;28;20609;-68
2021/05/28 04:08:27;;;;;;;21.48;9.10;;;9.60;99.90;;;;;;4142846;28;20117;-68
2021/05/28 04:10:28;;;;;;;29.63;10.65;;;9.60;99.90;;;;;;4139579;28;20041;-68
2021/05/28 04:12:28;;;;;;;24.88;10.65;;;9.60;99.90;;;;;;4153165;28;20025;-68
2021/05/28 04:14:29;;;;;;;26.08;11.07;;;9.60;99.90;;;;;;4157122;28;20121;-68
2021/05/28 04:16:29;;;;;;;23.73;11.35;;;9.60;99.90;;;;;;4155984;28;20731;-68
2021/05/28 04:18:30;;;;;;;24.02;10.70;;;9.60;99.90;;;;;;4156007;28;20116;-68
2021/05/28 04:20:31;;;;;;;16.58;9.25;;;9.60;99.90;;;;;;4154074;28;20041;-68
2021/05/28 04:22:32;;;;;;;15.43;7.80;;;9.60;99.90;;;;;;4155700;28;20412;-68
2021/05/28 04:24:33;;;;;;;13.75;7.60;;;9.70;99.90;;;;;;4155520;28;20044;-68
2021/05/28 04:26:33;;;;;;;10.98;6.88;;;9.70;99.90;;;;;;4154998;28;20552;-68
2021/05/28 04:28:34;;;;;;;18.00;8.30;;;9.70;99.90;;;;;;4147134;28;20045;-68
2021/05/28 04:30:34;;;;;;;20.42;11.15;;;9.70;99.90;;;;;;4154695;28;20038;-68
2021/05/28 04:32:35;;;;;;;23.77;12.35;;;9.70;99.90;;;;;;4156563;28;20030;-68
2021/05/28 04:34:37;;;;;;;20.00;11.55;;;9.70;99.90;;;;;;4158172;28;20030;-69
2021/05/28 04:36:37;;;;;;;19.45;10.18;;;9.70;99.90;;;;;;4157451;28;20125;-68
2021/05/28 04:38:38;;;;;;;22.90;12.50;;;9.70;99.90;;;;;;4157995;28;20045;-68
2021/05/28 04:40:39;;;;;;;25.65;12.50;;;9.70;99.90;;;;;;4157947;28;20428;-68
2021/05/28 04:42:39;;;;;;;20.08;11.15;;;9.70;99.90;;;;;;4150521;28;20109;-68
2021/05/28 04:44:40;;;;;;;17.48;10.50;;;9.70;99.90;;;;;;4148655;28;20038;-68
2021/05/28 04:46:41;;;;;;;17.35;10.32;;;9.80;99.90;;;;;;4151098;28;20655;-68
2021/05/28 04:48:41;;;;;;;19.67;9.88;;;9.80;99.90;;;;;;4156161;28;20040;-68
2021/05/28 04:50:42;;;;;;;15.98;9.27;;;9.80;99.90;;;;;;4152595;28;20030;-68
2021/05/28 04:52:45;;;;;;;18.50;10.68;;;9.90;99.90;;;;;;4158120;28;20041;-68
2021/05/28 04:54:45;;;;;;;18.45;11.23;;;9.90;99.90;;;;;;4148754;28;20053;-68
2021/05/28 04:56:46;;;;;;;19.83;10.63;;;9.90;99.90;;;;;;4158275;28;20026;-68
2021/05/28 04:58:47;;;;;;;18.63;10.38;;;9.90;99.90;;;;;;4155508;28;20032;-68
2021/05/28 05:00:49;;;;;;;17.60;10.55;;;9.90;99.90;;;;;;4134288;28;20049;-68
2021/05/28 05:02:49;;;;;;;17.55;11.13;;;9.90;99.90;;;;;;4155695;28;20055;-68
2021/05/28 05:04:50;;;;;;;15.57;9.75;;;10.00;99.90;;;;;;4144136;28;20038;-68
2021/05/28 05:06:50;;;;;;;17.27;10.38;;;10.00;99.90;;;;;;4151992;28;20048;-68
2021/05/28 05:08:51;;;;;;;15.45;10.20;;;10.00;99.90;;;;;;4154554;28;20021;-68
2021/05/28 05:10:52;;;;;;;15.00;10.30;;;10.00;99.90;;;;;;4158609;28;20113;-69
2021/05/28 05:12:52;;;;;;;15.82;10.55;;;10.00;99.90;;;;;;4152612;28;20432;-68
2021/05/28 05:14:53;;;;;;;15.30;10.15;;;10.10;99.90;;;;;;4150399;28;20184;-68
2021/05/28 05:16:53;;;;;;;20.73;11.07;;;10.10;99.90;;;;;;4155861;28;20366;-69
2021/05/28 05:18:54;;;;;;;16.45;10.35;;;10.10;99.90;;;;;;4151327;28;20041;-68
2021/05/28 05:20:55;;;;;;;20.13;11.30;;;10.10;99.90;;;;;;4152830;28;20044;-68
2021/05/28 05:22:55;;;;;;;17.45;10.98;;;10.20;99.90;;;;;;4140972;28;20065;-68
2021/05/28 05:24:56;;;;;;;20.33;11.13;;;10.20;99.90;;;;;;4157819;28;20037;-68
2021/05/28 05:26:58;;;;;;;17.10;9.90;;;10.20;99.90;;;;;;4159286;28;20048;-69
2021/05/28 05:28:58;;;;;;;21.27;12.38;;;10.20;99.90;;;;;;4154918;28;20054;-69
2021/05/28 05:30:59;;;;;;;21.13;12.70;;;10.20;99.90;;;;;;4152274;28;20033;-68
2021/05/28 05:33:00;;;;;;;23.75;13.07;;;10.30;99.90;;;;;;4154919;28;20036;-68
2021/05/28 05:35:01;;;;;;;20.20;12.15;;;10.30;99.90;;;;;;4155747;28;20037;-68
2021/05/28 05:37:02;;;;;;;25.05;12.40;;;10.30;99.90;;;;;;4153988;28;20489;-69
2021/05/28 05:39:03;;;;;;;20.92;10.65;;;10.30;99.90;;;;;;4159664;28;20425;-68
2021/05/28 05:41:04;;;;;;;18.90;11.93;;;10.30;99.90;;;;;;4158430;28;20117;-68
2021/05/28 05:43:05;;;;;;;17.40;10.75;;;10.30;99.90;;;;;;4160114;28;20452;-68
2021/05/28 05:45:08;;;;;;;18.63;11.32;;;10.30;99.90;;;;;;4154918;28;20211;-68
2021/05/28 05:47:09;;;;;;;18.55;11.18;;;10.30;99.90;;;;;;4156525;28;20783;-67
2021/05/28 05:49:09;;;;;;;16.95;10.65;;;10.40;99.90;;;;;;4161938;28;20056;-67
2021/05/28 05:51:10;;;;;;;15.43;10.07;;;10.40;99.90;;;;;;4162343;28;20045;-67
2021/05/28 05:53:10;;;;;;;17.65;10.18;;;10.40;99.90;;;;;;4161829;28;20036;-68
2021/05/28 05:55:11;;;;;;;22.00;12.63;;;10.40;99.90;;;;;;4159601;28;20111;-68
2021/05/28 05:57:12;;;;;;;23.65;12.68;;;10.40;99.90;;;;;;4160412;28;20099;-68
2021/05/28 05:59:13;;;;;;;20.65;12.48;;;10.40;99.90;;;;;;4160661;28;20072;-67
2021/05/28 06:01:14;;;;;;;18.48;10.73;;;10.40;99.90;;;;;;4156868;28;20064;-67
2021/05/28 06:03:15;;;;;;;15.30;9.35;;;10.40;99.90;;;;;;4158526;28;20474;-68
2021/05/28 06:05:18;;;;;;;17.48;10.85;;;10.40;99.90;;;;;;4160382;28;20033;-67
2021/05/28 06:07:19;;;;;;;26.02;14.40;;;10.40;99.90;;;;;;4158899;28;20052;-67
2021/05/28 06:09:19;;;;;;;22.67;13.50;;;10.40;99.90;;;;;;4160342;28;20030;-67
2021/05/28 06:11:20;;;;;;;23.13;13.88;;;10.40;99.90;;;;;;4159468;28;20053;-67
2021/05/28 06:13:21;;;;;;;24.88;14.05;;;10.40;99.90;;;;;;4157075;28;20037;-68
2021/05/28 06:15:21;;;;;;;20.63;12.63;;;10.40;99.90;;;;;;4159079;28;20092;-67
2021/05/28 06:17:22;;;;;;;24.10;13.60;;;10.50;99.90;;;;;;4158677;28;20177;-67
2021/05/28 06:19:23;;;;;;;24.10;13.55;;;10.50;99.90;;;;;;4156547;28;20061;-67
2021/05/28 06:21:24;;;;;;;23.77;13.77;;;10.50;99.90;;;;;;4157270;28;20037;-67
2021/05/28 06:23:24;;;;;;;25.33;14.55;;;10.50;99.90;;;;;;4165734;28;20052;-67
2021/05/28 06:25:25;;;;;;;30.08;17.25;;;10.50;99.90;;;;;;4158278;28;20025;-67
2021/05/28 06:27:26;;;;;;;26.67;16.65;;;10.50;99.90;;;;;;4160126;28;20045;-67
2021/05/28 06:29:26;;;;;;;28.80;16.35;;;10.50;99.90;;;;;;4160359;28;20056;-68
2021/05/28 06:31:27;;;;;;;29.38;15.88;;;10.50;99.90;;;;;;4161471;28;20042;-68
2021/05/28 06:33:28;;;;;;;24.80;14.35;;;10.50;99.90;;;;;;4157104;28;20030;-68
2021/05/28 06:35:28;;;;;;;26.30;15.48;;;10.60;99.90;;;;;;4155048;28;20389;-68
2021/05/28 06:37:29;;;;;;;28.33;17.80;;;10.60;99.90;;;;;;4157976;28;20056;-68
2021/05/28 06:39:30;;;;;;;32.55;20.30;;;10.60;99.90;;;;;;4152547;28;20656;-68
2021/05/28 06:41:31;;;;;;;33.80;20.27;;;10.70;99.90;;;;;;4145725;28;20041;-68
2021/05/28 06:43:31;;;;;;;32.97;20.60;;;10.70;99.90;;;;;;4149093;28;20042;-68
2021/05/28 06:45:34;;;;;;;32.10;19.67;;;10.60;99.90;;;;;;4145476;28;20037;-68
2021/05/28 06:47:35;;;;;;;30.33;18.70;;;10.60;99.90;;;;;;4133186;28;20418;-68
2021/05/28 06:49:36;;;;;;;34.80;20.17;;;10.60;99.90;;;;;;4147185;28;20037;-68
2021/05/28 06:51:36;;;;;;;26.63;16.88;;;10.60;99.90;;;;;;4148097;28;20037;-68
2021/05/28 06:53:37;;;;;;;30.02;17.73;;;10.70;99.90;;;;;;4143431;28;20387;-68
2021/05/28 06:55:39;;;;;;;30.23;17.80;;;10.70;99.90;;;;;;4147007;28;20049;-68
2021/05/28 06:57:39;;;;;;;30.52;17.48;;;10.70;99.90;;;;;;4148766;28;20067;-68
2021/05/28 06:59:40;;;;;;;29.23;18.20;;;10.70;99.90;;;;;;4150521;28;20048;-68
2021/05/28 07:01:41;;;;;;;32.97;18.88;;;10.70;99.90;;;;;;4151111;28;20033;-68
2021/05/28 07:03:41;;;;;;;28.60;17.80;;;10.60;99.90;;;;;;4148032;28;20433;-68
2021/05/28 07:05:42;;;;;;;31.70;18.77;;;10.70;99.90;;;;;;4149426;28;20448;-68
2021/05/28 07:07:43;;;;;;;34.10;19.77;;;10.60;99.90;;;;;;4148946;28;20343;-68
2021/05/28 07:09:44;;;;;;;27.30;18.02;;;10.60;99.90;;;;;;4149756;28;20038;-68
2021/05/28 07:11:45;;;;;;;24.85;16.67;;;10.70;99.90;;;;;;4147421;28;20515;-68
2021/05/28 07:13:45;;;;;;;26.17;16.70;;;10.70;99.90;;;;;;4148410;28;20516;-68
2021/05/28 07:15:46;;;;;;;37.55;20.90;;;10.70;99.90;;;;;;4149148;28;20034;-68
2021/05/28 07:17:47;;;;;;;36.17;22.92;;;10.70;99.90;;;;;;4147575;28;20081;-68
2021/05/28 07:19:47;;;;;;;48.85;26.80;;;10.70;99.90;;;;;;4142164;28;20197;-68
2021/05/28 07:21:48;;;;;;;36.80;22.50;;;10.70;99.90;;;;;;4147833;28;20065;-68
2021/05/28 07:23:49;;;;;;;38.30;22.60;;;10.70;99.90;;;;;;4148031;28;20049;-68
2021/05/28 07:25:49;;;;;;;37.63;23.27;;;10.70;99.90;;;;;;4146240;28;20040;-68
2021/05/28 07:27:50;;;;;;;39.97;24.27;;;10.80;99.90;;;;;;4140519;28;20493;-68
2021/05/28 07:29:51;;;;;;;40.47;25.80;;;10.80;99.90;;;;;;4146456;28;20048;-68
2021/05/28 07:31:52;;;;;;;43.60;25.33;;;10.80;99.90;;;;;;4147828;28;20045;-68
2021/05/28 07:33:52;;;;;;;41.25;24.98;;;10.80;99.90;;;;;;4154849;28;20030;-70
2021/05/28 07:35:54;;;;;;;39.20;24.33;;;10.80;99.90;;;;;;4154861;28;20148;-68
2021/05/28 07:37:54;;;;;;;47.85;29.00;;;10.80;99.90;;;;;;4157575;28;20445;-68
2021/05/28 07:39:55;;;;;;;43.67;27.17;;;10.80;99.90;;;;;;4152823;28;20084;-68
2021/05/28 07:41:55;;;;;;;45.08;27.80;;;10.80;99.90;;;;;;4158730;28;20549;-68
2021/05/28 07:43:56;;;;;;;44.03;27.23;;;10.90;99.90;;;;;;4156549;28;20124;-68
2021/05/28 07:45:58;;;;;;;41.40;26.55;;;10.80;99.90;;;;;;4154143;28;20045;-68
2021/05/28 07:47:59;;;;;;;47.20;28.90;;;10.90;99.90;;;;;;4155706;28;20068;-68
2021/05/28 07:50:02;;;;;;;41.33;26.77;;;11.00;99.90;;;;;;4153868;28;20054;-68
2021/05/28 07:52:03;;;;;;;47.60;29.65;;;11.00;99.90;;;;;;4153571;28;20037;-68
2021/05/28 07:54:05;;;;;;;48.25;30.33;;;11.00;99.90;;;;;;4152161;28;20349;-68
2021/05/28 07:56:06;;;;;;;44.15;29.52;;;11.00;99.90;;;;;;4154722;28;20042;-68
2021/05/28 07:58:06;;;;;;;49.65;30.50;;;11.10;99.90;;;;;;4154231;28;20045;-68
2021/05/28 08:00:08;;;;;;;47.13;29.10;;;11.10;99.90;;;;;;4155774;28;20523;-68
2021/05/28 08:02:09;;;;;;;44.78;28.55;;;11.10;99.90;;;;;;4149550;28;20553;-68
2021/05/28 08:04:09;;;;;;;41.75;27.38;;;11.20;99.90;;;;;;4154542;28;20076;-68
2021/05/28 08:06:10;;;;;;;40.78;26.75;;;11.20;99.90;;;;;;4152206;28;20406;-68
2021/05/28 08:08:11;;;;;;;39.33;27.98;;;11.20;99.90;;;;;;4154023;28;20176;-68
2021/05/28 08:10:11;;;;;;;45.53;30.42;;;11.30;99.90;;;;;;4154614;28;20476;-68
2021/05/28 08:12:12;;;;;;;35.03;25.70;;;11.30;99.90;;;;;;4149814;28;20037;-68
2021/05/28 08:14:12;;;;;;;37.60;26.38;;;11.40;99.90;;;;;;4159731;28;20056;-70
2021/05/28 08:16:14;;;;;;;42.60;28.30;;;11.40;99.90;;;;;;4157651;28;20131;-69
2021/05/28 08:18:14;;;;;;;40.25;27.17;;;11.40;99.90;;;;;;4153550;28;20029;-69
2021/05/28 08:20:16;;;;;;;36.45;26.00;;;11.50;99.90;;;;;;4153556;28;20645;-69
2021/05/28 08:22:16;;;;;;;35.58;25.73;;;11.50;99.90;;;;;;4153750;28;20168;-68
2021/05/28 08:24:17;;;;;;;31.90;23.15;;;11.60;99.90;;;;;;4154139;28;20154;-69
2021/05/28 08:26:17;;;;;;;35.80;24.42;;;11.60;99.90;;;;;;4148138;28;20034;-68
2021/05/28 08:28:19;;;;;;;31.83;22.95;;;11.60;99.90;;;;;;4149459;28;20041;-69
2021/05/28 08:30:20;;;;;;;28.70;21.65;;;11.70;99.90;;;;;;4156710;28;20040;-69
2021/05/28 08:32:21;;;;;;;31.02;21.17;;;11.70;99.90;;;;;;4153887;28;20116;-69
2021/05/28 08:34:22;;;;;;;28.05;20.63;;;11.70;99.90;;;;;;4154430;28;20040;-68
2021/05/28 08:36:22;;;;;;;27.15;20.23;;;11.80;99.90;;;;;;4152982;28;20187;-69
2021/05/28 08:38:23;;;;;;;23.92;18.42;;;11.80;99.90;;;;;;4153580;28;20033;-69
2021/05/28 08:40:25;;;;;;;28.95;20.70;;;11.80;99.90;;;;;;4155640;28;21758;-69
2021/05/28 08:42:28;;;;;;;28.45;21.05;;;11.80;99.90;;;;;;4154231;28;20087;-68
2021/05/28 08:44:31;;;;;;;26.88;20.35;;;11.80;99.90;;;;;;4152383;28;20021;-69
2021/05/28 08:46:32;;;;;;;25.70;19.80;;;11.90;99.90;;;;;;4155902;28;20120;-69
2021/05/28 08:48:32;;;;;;;26.92;19.60;;;12.00;99.90;;;;;;4150112;28;20367;-69
2021/05/28 08:50:34;;;;;;;24.35;17.80;;;12.00;99.90;;;;;;4159275;28;20109;-69
2021/05/28 08:52:35;;;;;;;22.35;17.08;;;12.10;99.90;;;;;;4155459;28;20030;-68
2021/05/28 08:54:35;;;;;;;24.25;17.67;;;12.10;99.90;;;;;;4155691;28;20032;-69
2021/05/28 08:56:36;;;;;;;23.67;17.67;;;12.20;99.90;;;;;;4156533;28;20521;-69
2021/05/28 08:58:38;;;;;;;23.83;17.85;;;12.30;99.90;;;;;;4157407;28;20111;-69
2021/05/28 09:00:39;;;;;;;22.58;16.70;;;12.30;99.90;;;;;;4155731;28;20037;-69
2021/05/28 09:02:40;;;;;;;24.23;17.40;;;12.50;99.90;;;;;;4153866;28;20042;-69
2021/05/28 09:04:41;;;;;;;24.00;17.17;;;12.60;99.90;;;;;;4153123;28;20034;-69
2021/05/28 09:06:47;;;;;;;23.23;16.80;;;12.60;99.90;;;;;;4157195;28;20125;-69
2021/05/28 09:08:47;;;;;;;23.35;17.55;;;12.70;99.90;;;;;;4160571;28;20101;-69
2021/05/28 09:10:48;;;;;;;20.85;15.93;;;12.80;99.90;;;;;;4158422;28;22091;-69
2021/05/28 09:12:49;;;;;;;27.90;17.88;;;12.90;99.90;;;;;;4167107;28;20088;-68
2021/05/28 09:14:50;;;;;;;20.95;16.95;;;13.00;99.90;;;;;;4157547;28;20120;-69
2021/05/28 09:16:50;;;;;;;25.50;19.20;;;13.10;99.90;;;;;;4163428;28;20039;-69
2021/05/28 09:18:56;;;;;;;23.05;16.50;;;13.20;99.90;;;;;;4158626;28;20040;-69
2021/05/28 09:20:57;;;;;;;21.88;15.90;;;13.30;99.90;;;;;;4159335;28;20068;-69
2021/05/28 09:23:10;;;;;;;18.50;14.32;;;13.30;99.90;;;;;;4159531;28;20046;-69
2021/05/28 09:25:12;;;;;;;16.40;13.52;;;13.40;99.90;;;;;;4159260;28;20115;-69
2021/05/28 09:27:23;;;;;;;21.35;15.63;;;13.50;99.90;;;;;;4158772;28;20569;-69
2021/05/28 09:29:24;;;;;;;18.42;14.50;;;13.60;99.90;;;;;;4163519;28;20678;-69
2021/05/28 09:31:32;;;;;;;19.15;13.40;;;13.60;99.90;;;;;;4158354;28;20029;-69
2021/05/28 09:33:35;;;;;;;17.63;13.20;;;13.80;99.90;;;;;;4155650;28;20054;-69
2021/05/28 09:35:36;;;;;;;18.67;13.98;;;13.90;99.90;;;;;;4159013;28;20045;-69
2021/05/28 09:37:46;;;;;;;22.20;14.77;;;14.00;99.90;;;;;;4161047;28;20128;-69
2021/05/28 09:39:47;;;;;;;17.20;12.35;;;14.10;99.90;;;;;;4157096;28;20064;-69
2021/05/28 09:41:53;;;;;;;22.55;14.40;;;14.20;99.90;;;;;;4152090;28;20145;-69
2021/05/28 09:44:09;;;;;;;21.77;14.20;;;14.30;99.90;;;;;;4160166;28;20037;-69
2021/05/28 09:46:12;;;;;;;21.33;14.80;;;14.40;99.90;;;;;;4161583;28;20099;-69
2021/05/28 09:48:15;;;;;;;17.67;12.52;;;14.40;99.90;;;;;;4160068;28;20046;-69
2021/05/28 09:50:16;;;;;;;19.02;12.43;;;14.40;99.90;;;;;;4158051;28;20087;-69
2021/05/28 09:52:21;;;;;;;14.27;10.35;;;14.50;99.90;;;;;;4157030;28;20523;-69
2021/05/28 09:54:21;;;;;;;15.50;10.52;;;14.60;99.90;;;;;;4155994;28;20052;-68
2021/05/28 09:56:31;;;;;;;16.33;11.00;;;14.70;99.90;;;;;;4163056;28;20720;-68
2021/05/28 09:58:54;;;;;;;16.92;11.30;;;14.70;99.90;;;;;;4155787;28;21206;-69
2021/05/28 10:01:08;;;;;;;15.65;10.98;;;14.90;99.90;;;;;;4155822;28;20036;-68
2021/05/28 10:03:23;;;;;;;19.30;10.77;;;15.00;99.90;;;;;;4150942;28;20050;-69
2021/05/28 10:05:25;;;;;;;14.50;9.82;;;15.10;99.90;;;;;;4154635;28;20248;-69
2021/05/28 10:07:27;;;;;;;14.07;9.93;;;15.20;99.90;;;;;;4157444;28;20037;-68
2021/05/28 10:09:28;;;;;;;14.50;10.10;;;15.30;99.90;;;;;;4157734;28;20492;-69
2021/05/28 10:11:31;;;;;;;13.93;9.50;;;15.40;99.90;;;;;;4159175;28;20044;-69
2021/05/28 10:13:31;;;;;;;13.20;9.00;;;15.50;99.90;;;;;;4155305;28;20048;-68
2021/05/28 10:15:33;;;;;;;12.68;8.63;;;15.50;99.90;;;;;;4157605;28;20392;-69
2021/05/28 10:17:34;;;;;;;15.55;9.95;;;15.60;99.90;;;;;;4169285;28;20036;-69
2021/05/28 10:19:37;;;;;;;16.98;10.68;;;15.70;99.90;;;;;;4157771;28;20573;-68
2021/05/28 10:21:37;;;;;;;13.48;8.75;;;15.70;99.90;;;;;;4155142;28;20072;-69
2021/05/28 10:23:38;;;;;;;16.25;9.27;;;15.80;99.90;;;;;;4161640;28;20045;-68
2021/05/28 10:25:40;;;;;;;14.45;8.50;;;15.90;99.90;;;;;;4161307;28;20412;-69
2021/05/28 10:27:40;;;;;;;15.80;9.18;;;15.90;99.90;;;;;;4157267;28;20038;-69